createdAt,value
2022-08-10T00:00:30.943Z,93.11
2022-08-10T00:03:20.334Z,93.49
2022-08-10T00:06:07.445Z,94.12
2022-08-10T00:08:54.518Z,94.32
2022-08-10T00:11:41.543Z,94.62
2022-08-10T00:14:28.557Z,94.41
2022-08-10T00:17:15.615Z,94.21
2022-08-10T00:20:08.554Z,93.51
2022-08-10T00:22:57.697Z,93.55
2022-08-10T00:25:45.102Z,92.55
2022-08-10T00:28:32.286Z,91.45
2022-08-10T00:31:19.646Z,90.99
2022-08-10T00:34:06.658Z,90.62
2022-08-10T00:36:53.745Z,91.56
2022-08-10T00:39:41.372Z,91.69
2022-08-10T00:42:28.555Z,91.84
2022-08-10T00:45:15.574Z,91.74
2022-08-10T00:48:03.031Z,92.16
2022-08-10T00:50:50.378Z,92.28
2022-08-10T00:53:37.464Z,92.16
2022-08-10T00:57:12.691Z,92.07
2022-08-10T00:59:33.009Z,92.01
2022-08-10T01:02:20.062Z,93.04
2022-08-10T01:05:12.401Z,93.57
2022-08-10T01:08:02.251Z,93.65
2022-08-10T01:12:34.203Z,94.58
2022-08-10T01:14:45.187Z,94.96
2022-08-10T01:17:50.665Z,95.64
2022-08-10T01:20:41.691Z,96.45
2022-08-10T01:24:13.472Z,96.89
2022-08-10T01:27:27.418Z,97.51
2022-08-10T01:30:15.402Z,99.06
2022-08-10T01:33:19.196Z,99.64
2022-08-10T01:36:32.037Z,99.82
2022-08-10T01:39:25.268Z,100.00
2022-08-10T01:42:16.909Z,100.00
2022-08-10T01:45:07.263Z,100.00
2022-08-10T01:48:16.989Z,100.00
2022-08-10T01:51:25.273Z,100.00
2022-08-10T01:54:16.071Z,100.00
2022-08-10T01:57:04.516Z,100.00
2022-08-10T01:59:58.788Z,100.00
2022-08-10T02:02:52.769Z,100.00
2022-08-10T02:05:43.531Z,100.00
2022-08-10T02:08:31.983Z,100.00
2022-08-10T02:11:21.185Z,100.00
2022-08-10T02:14:10.042Z,100.00
2022-08-10T02:16:58.095Z,100.00
2022-08-10T02:19:47.190Z,100.00
2022-08-10T02:22:38.844Z,100.00
2022-08-10T02:25:41.738Z,100.00
2022-08-10T02:28:33.746Z,100.00
2022-08-10T02:31:23.454Z,100.00
2022-08-10T02:34:12.773Z,100.00
2022-08-10T02:37:03.948Z,100.00
2022-08-10T02:39:58.231Z,100.00
2022-08-10T02:45:23.959Z,100.00
2022-08-10T02:46:12.138Z,100.00
2022-08-10T02:49:05.089Z,100.00
2022-08-10T02:52:07.570Z,100.00
2022-08-10T02:55:06.119Z,100.00
2022-08-10T02:58:17.627Z,100.00
2022-08-10T03:01:10.722Z,100.00
2022-08-10T03:04:02.011Z,100.00
2022-08-10T03:06:56.392Z,100.00
2022-08-10T03:09:45.287Z,100.00
2022-08-10T03:12:38.661Z,100.00
2022-08-10T03:15:28.659Z,100.00
2022-08-10T03:18:16.887Z,100.00
2022-08-10T03:21:10.018Z,100.00
2022-08-10T03:24:02.610Z,100.00
2022-08-10T03:27:10.710Z,100.00
2022-08-10T03:30:28.563Z,100.00
2022-08-10T03:33:07.873Z,100.00
2022-08-10T03:36:40.463Z,100.00
2022-08-10T03:39:02.357Z,100.00
2022-08-10T03:41:55.946Z,100.00
2022-08-10T03:44:48.582Z,100.00
2022-08-10T03:47:42.061Z,100.00
2022-08-10T03:50:51.502Z,100.00
2022-08-10T03:54:05.524Z,100.00
2022-08-10T03:56:46.205Z,100.00
2022-08-10T03:59:33.861Z,100.00
2022-08-10T04:02:52.721Z,100.00
2022-08-10T04:05:38.255Z,100.00
2022-08-10T04:08:26.312Z,100.00
2022-08-10T04:11:13.590Z,100.00
2022-08-10T04:14:00.628Z,100.00
2022-08-10T04:16:47.628Z,100.00
2022-08-10T04:19:43.208Z,100.00
2022-08-10T04:22:30.668Z,100.00
2022-08-10T04:25:18.454Z,100.00
2022-08-10T04:28:09.597Z,100.00
2022-08-10T04:30:57.820Z,100.00
2022-08-10T04:33:49.011Z,100.00
2022-08-10T04:36:37.240Z,100.00
2022-08-10T04:39:24.390Z,100.00
2022-08-10T04:42:11.754Z,100.00
2022-08-10T04:44:59.549Z,100.00
2022-08-10T04:48:00.354Z,100.00
2022-08-10T04:50:50.845Z,100.00
2022-08-10T04:54:03.155Z,100.00
2022-08-10T04:56:46.025Z,100.00
2022-08-10T04:59:33.086Z,100.00
2022-08-10T05:02:30.531Z,100.00
2022-08-10T05:05:19.217Z,100.00
2022-08-10T05:08:06.322Z,100.00
2022-08-10T05:10:53.576Z,100.00
2022-08-10T05:13:40.571Z,100.00
2022-08-10T05:16:32.272Z,100.00
2022-08-10T05:20:02.358Z,100.00
2022-08-10T05:22:26.694Z,100.00
2022-08-10T05:25:16.348Z,100.00
2022-08-10T05:28:06.453Z,100.00
2022-08-10T05:30:53.948Z,100.00
2022-08-10T05:33:40.961Z,100.00
2022-08-10T05:36:28.496Z,100.00
2022-08-10T05:39:16.938Z,100.00
2022-08-10T05:42:04.313Z,100.00
2022-08-10T05:44:51.986Z,100.00
2022-08-10T05:48:41.560Z,100.00
2022-08-10T05:50:46.459Z,100.00
2022-08-10T05:54:03.064Z,100.00
2022-08-10T05:56:56.939Z,100.00
2022-08-10T06:00:33.148Z,100.00
2022-08-10T06:03:03.927Z,100.00
2022-08-10T06:05:54.124Z,100.00
2022-08-10T06:08:43.619Z,100.00
2022-08-10T06:12:27.982Z,100.00
2022-08-10T06:15:00.306Z,100.00
2022-08-10T06:17:59.030Z,100.00
2022-08-10T06:20:50.304Z,100.00
2022-08-10T06:23:38.417Z,100.00
2022-08-10T06:26:25.386Z,98.40
2022-08-10T06:29:17.194Z,95.90
2022-08-10T06:32:06.281Z,94.00
2022-08-10T06:34:55.952Z,91.94
2022-08-10T06:37:51.727Z,91.63
2022-08-10T06:40:43.415Z,90.80
2022-08-10T06:43:32.466Z,90.10
2022-08-10T06:46:22.204Z,91.06
2022-08-10T06:49:11.178Z,90.35
2022-08-10T06:52:01.924Z,89.55
2022-08-10T06:54:54.522Z,88.75
2022-08-10T06:57:44.066Z,86.39
2022-08-10T07:00:34.615Z,85.75
2022-08-10T07:03:26.429Z,84.64
2022-08-10T07:06:16.107Z,82.80
2022-08-10T07:09:04.739Z,84.63
2022-08-10T07:11:54.441Z,83.53
2022-08-10T07:14:48.981Z,82.11
2022-08-10T07:17:40.022Z,80.89
2022-08-10T07:20:30.964Z,79.30
2022-08-10T07:23:58.222Z,80.09
2022-08-10T07:26:31.122Z,78.43
2022-08-10T07:29:26.590Z,77.07
2022-08-10T07:32:33.077Z,77.03
2022-08-10T07:35:26.384Z,77.68
2022-08-10T07:38:23.852Z,75.99
2022-08-10T07:41:13.331Z,74.52
2022-08-10T07:44:07.878Z,72.14
2022-08-10T07:46:58.827Z,70.23
2022-08-10T07:49:48.142Z,69.92
2022-08-10T07:52:38.222Z,67.95
2022-08-10T07:56:08.253Z,69.38
2022-08-10T07:58:38.589Z,71.15
2022-08-10T08:01:31.911Z,66.92
2022-08-10T08:04:22.011Z,67.59
2022-08-10T08:07:09.003Z,64.27
2022-08-10T08:10:01.051Z,63.81
2022-08-10T08:12:48.817Z,66.11
2022-08-10T08:16:20.047Z,62.86
2022-08-10T08:18:54.134Z,65.64
2022-08-10T08:24:07.658Z,64.51
2022-08-10T08:25:00.412Z,61.47
2022-08-10T08:27:52.896Z,59.41
2022-08-10T08:30:43.526Z,59.31
2022-08-10T08:33:42.009Z,57.44
2022-08-10T08:36:30.851Z,57.72
2022-08-10T08:39:17.974Z,56.33
2022-08-10T08:42:42.717Z,59.10
2022-08-10T08:46:00.456Z,56.68
2022-08-10T08:48:51.746Z,55.01
2022-08-10T08:52:20.197Z,54.54
2022-08-10T08:56:03.116Z,55.10
2022-08-10T08:59:05.673Z,54.07
2022-08-10T09:02:10.123Z,53.50
2022-08-10T09:05:22.282Z,52.18
2022-08-10T09:08:37.310Z,51.19
2022-08-10T09:11:27.252Z,51.23
2022-08-10T09:14:30.962Z,49.61
2022-08-10T09:17:42.342Z,48.59
2022-08-10T09:21:09.939Z,48.63
2022-08-10T09:24:11.436Z,46.75
2022-08-10T09:27:04.189Z,47.56
2022-08-10T09:30:00.416Z,45.67
2022-08-10T09:36:16.062Z,44.62
2022-08-10T09:36:31.955Z,45.72
2022-08-10T09:40:56.325Z,43.69
2022-08-10T09:43:26.056Z,42.16
2022-08-10T09:46:42.586Z,39.73
2022-08-10T09:49:54.756Z,40.81
2022-08-10T09:53:04.304Z,40.43
2022-08-10T09:56:17.382Z,41.13
2022-08-10T09:59:29.179Z,41.90
2022-08-10T10:02:52.563Z,38.86
2022-08-10T10:06:02.251Z,38.90
2022-08-10T10:09:10.629Z,38.94
2022-08-10T10:12:05.133Z,39.42
2022-08-10T10:15:23.986Z,39.15
2022-08-10T10:18:22.491Z,39.11
2022-08-10T10:21:52.320Z,38.99
2022-08-10T10:24:43.188Z,38.85
2022-08-10T10:27:33.510Z,38.78
2022-08-10T10:30:23.411Z,38.29
2022-08-10T10:33:15.333Z,37.24
2022-08-10T10:36:05.718Z,37.99
2022-08-10T10:38:56.287Z,38.49
2022-08-10T10:42:04.879Z,37.94
2022-08-10T10:45:15.090Z,38.04
2022-08-10T10:48:32.381Z,37.40
2022-08-10T10:51:55.501Z,37.96
2022-08-10T10:55:09.678Z,37.47
2022-08-10T10:58:05.530Z,37.93
2022-08-10T11:01:11.037Z,38.41
2022-08-10T11:04:18.557Z,37.03
2022-08-10T11:07:37.205Z,36.25
2022-08-10T11:10:54.139Z,36.29
2022-08-10T11:14:24.407Z,37.72
2022-08-10T11:17:16.424Z,36.57
2022-08-10T11:20:18.109Z,36.02
2022-08-10T11:23:22.749Z,35.05
2022-08-10T11:26:22.902Z,34.42
2022-08-10T11:29:26.011Z,34.87
2022-08-10T11:32:35.203Z,34.69
2022-08-10T11:35:34.731Z,36.04
2022-08-10T11:38:36.870Z,35.78
2022-08-10T11:42:11.987Z,36.49
2022-08-10T11:44:53.682Z,35.80
2022-08-10T11:47:43.673Z,35.15
2022-08-10T11:50:43.702Z,34.21
2022-08-10T11:53:39.298Z,36.47
2022-08-10T11:56:33.727Z,34.92
2022-08-10T11:59:43.138Z,33.00
2022-08-10T12:02:36.009Z,35.31
2022-08-10T12:05:52.150Z,33.56
2022-08-10T12:10:03.765Z,34.21
2022-08-10T12:11:48.581Z,34.65
2022-08-10T12:14:43.495Z,35.29
2022-08-10T12:17:56.127Z,34.61
2022-08-10T12:20:48.666Z,35.85
2022-08-10T12:23:42.745Z,36.01
2022-08-10T12:26:48.046Z,34.95
2022-08-10T12:30:04.801Z,34.81
2022-08-10T12:33:02.257Z,33.08
2022-08-10T12:36:19.076Z,33.71
2022-08-10T12:39:29.995Z,34.22
2022-08-10T12:42:38.934Z,33.20
2022-08-10T12:45:54.222Z,33.66
2022-08-10T12:48:54.639Z,34.46
2022-08-10T12:51:49.846Z,33.59
2022-08-10T12:54:38.380Z,34.54
2022-08-10T12:57:26.570Z,33.62
2022-08-10T13:00:17.303Z,33.92
2022-08-10T13:03:07.931Z,33.94
2022-08-10T13:06:02.374Z,33.78
2022-08-10T13:09:10.674Z,33.86
2022-08-10T13:12:36.296Z,32.96
2022-08-10T13:15:48.150Z,33.40
2022-08-10T13:18:41.491Z,33.01
2022-08-10T13:21:35.912Z,33.44
2022-08-10T13:24:31.967Z,32.18
2022-08-10T13:28:00.547Z,32.86
2022-08-10T13:30:37.451Z,32.82
2022-08-10T13:34:41.472Z,32.39
2022-08-10T13:36:41.638Z,32.77
2022-08-10T13:39:58.480Z,32.37
2022-08-10T13:42:50.002Z,32.96
2022-08-10T13:45:47.724Z,32.56
2022-08-10T13:48:40.246Z,32.54
2022-08-10T13:51:54.400Z,34.79
2022-08-10T13:54:41.746Z,33.91
2022-08-10T13:57:32.628Z,33.38
2022-08-10T14:00:35.238Z,33.10
2022-08-10T14:03:27.286Z,32.32
2022-08-10T14:06:16.338Z,32.38
2022-08-10T14:09:08.973Z,33.42
2022-08-10T14:11:58.142Z,33.08
2022-08-10T14:14:52.848Z,32.92
2022-08-10T14:17:44.879Z,33.03
2022-08-10T14:20:34.723Z,32.49
2022-08-10T14:23:21.967Z,33.78
2022-08-10T14:26:11.614Z,32.87
2022-08-10T14:29:08.582Z,33.43
2022-08-10T14:32:00.611Z,34.71
2022-08-10T14:36:16.822Z,33.94
2022-08-10T14:38:05.975Z,33.69
2022-08-10T14:40:56.983Z,33.18
2022-08-10T14:43:51.238Z,31.25
2022-08-10T14:46:44.609Z,31.88
2022-08-10T14:49:57.370Z,32.23
2022-08-10T14:52:45.294Z,32.52
2022-08-10T14:55:32.873Z,33.27
2022-08-10T14:59:06.134Z,32.58
2022-08-10T15:02:38.257Z,34.52
2022-08-10T15:05:09.391Z,32.39
2022-08-10T15:07:59.120Z,32.13
2022-08-10T15:10:50.826Z,32.56
2022-08-10T15:13:44.005Z,32.43
2022-08-10T15:16:56.149Z,32.49
2022-08-10T15:20:04.682Z,31.71
2022-08-10T15:23:04.276Z,33.05
2022-08-10T15:25:57.778Z,33.34
2022-08-10T15:29:23.693Z,33.00
2022-08-10T15:32:16.988Z,32.78
2022-08-10T15:35:27.085Z,32.50
2022-08-10T15:38:21.764Z,32.00
2022-08-10T15:41:12.984Z,32.10
2022-08-10T15:44:03.858Z,32.05
2022-08-10T15:46:57.742Z,32.11
2022-08-10T15:49:58.090Z,33.15
2022-08-10T15:53:00.999Z,33.07
2022-08-10T15:55:53.061Z,33.16
2022-08-10T15:58:52.992Z,33.39
2022-08-10T16:02:13.065Z,32.15
2022-08-10T16:05:08.379Z,31.95
2022-08-10T16:08:09.872Z,32.90
2022-08-10T16:11:05.539Z,31.87
2022-08-10T16:14:00.660Z,32.63
2022-08-10T16:16:54.267Z,31.84
2022-08-10T16:19:53.446Z,32.52
2022-08-10T16:22:41.016Z,32.47
2022-08-10T16:25:48.124Z,31.12
2022-08-10T16:28:43.699Z,31.02
2022-08-10T16:31:33.054Z,29.83
2022-08-10T16:34:21.938Z,29.47
2022-08-10T16:37:15.769Z,29.05
2022-08-10T16:40:06.375Z,28.88
2022-08-10T16:42:54.107Z,28.82
2022-08-10T16:45:45.966Z,29.18
2022-08-10T16:48:49.780Z,28.48
2022-08-10T16:51:39.865Z,30.20
2022-08-10T16:54:28.423Z,31.59
2022-08-10T16:57:16.347Z,35.72
2022-08-10T17:00:05.904Z,33.82
2022-08-10T17:02:58.176Z,34.40
2022-08-10T17:06:10.296Z,35.13
2022-08-10T17:08:56.792Z,35.64
2022-08-10T17:11:50.054Z,34.69
2022-08-10T17:14:40.249Z,37.21
2022-08-10T17:17:31.053Z,36.26
2022-08-10T17:20:31.943Z,36.43
2022-08-10T17:23:20.906Z,36.03
2022-08-10T17:26:14.966Z,36.46
2022-08-10T17:29:57.817Z,36.81
2022-08-10T17:32:32.082Z,36.90
2022-08-10T17:35:23.792Z,38.45
2022-08-10T17:38:30.802Z,40.04
2022-08-10T17:41:23.849Z,38.28
2022-08-10T17:44:12.296Z,38.84
2022-08-10T17:47:00.916Z,39.34
2022-08-10T17:50:00.002Z,39.28
2022-08-10T17:52:48.073Z,38.67
2022-08-10T17:55:38.610Z,39.84
2022-08-10T17:58:27.236Z,40.98
2022-08-10T18:01:41.569Z,42.30
2022-08-10T18:04:30.330Z,41.21
2022-08-10T18:07:23.063Z,41.87
2022-08-10T18:10:15.141Z,43.48
2022-08-10T18:13:04.549Z,43.04
2022-08-10T18:15:52.138Z,44.46
2022-08-10T18:18:40.784Z,44.10
2022-08-10T18:21:30.934Z,45.09
2022-08-10T18:24:21.197Z,45.63
2022-08-10T18:27:09.029Z,45.11
2022-08-10T18:29:59.999Z,45.46
2022-08-10T18:32:54.094Z,45.62
2022-08-10T18:35:43.907Z,46.39
2022-08-10T18:38:34.329Z,46.43
2022-08-10T18:41:36.728Z,46.87
2022-08-10T18:44:28.810Z,47.00
2022-08-10T18:47:20.189Z,47.09
2022-08-10T18:50:14.254Z,47.31
2022-08-10T18:53:12.086Z,47.36
2022-08-10T18:56:10.602Z,47.85
2022-08-10T18:59:22.914Z,47.97
2022-08-10T19:02:42.402Z,48.79
2022-08-10T19:05:35.839Z,48.85
2022-08-10T19:09:02.043Z,49.35
2022-08-10T19:12:31.215Z,49.91
2022-08-10T19:15:59.320Z,50.47
2022-08-10T19:19:24.078Z,51.12
2022-08-10T19:22:21.467Z,51.28
2022-08-10T19:26:43.192Z,51.06
2022-08-10T19:28:58.884Z,51.35
2022-08-10T19:31:56.596Z,51.75
2022-08-10T19:35:03.173Z,52.10
2022-08-10T19:38:16.744Z,52.58
2022-08-10T19:41:25.391Z,52.75
2022-08-10T19:44:35.606Z,53.03
2022-08-10T19:47:36.344Z,53.52
2022-08-10T19:50:33.039Z,54.04
2022-08-10T19:53:26.860Z,54.48
2022-08-10T19:56:34.790Z,55.31
2022-08-10T20:00:17.518Z,54.92
2022-08-10T20:03:01.302Z,55.26
2022-08-10T20:06:19.116Z,56.36
2022-08-10T20:09:27.328Z,56.72
2022-08-10T20:12:27.100Z,56.97
2022-08-10T20:15:41.965Z,56.95
2022-08-10T20:18:37.619Z,57.49
2022-08-10T20:21:31.193Z,58.04
2022-08-10T20:24:29.000Z,59.90
2022-08-10T20:27:59.656Z,61.75
2022-08-10T20:30:47.097Z,62.97
2022-08-10T20:34:01.688Z,63.72
2022-08-10T20:37:05.017Z,64.24
2022-08-10T20:40:20.354Z,64.43
2022-08-10T20:43:20.716Z,64.21
2022-08-10T20:46:28.006Z,63.96
2022-08-10T20:49:27.147Z,64.17
2022-08-10T20:52:15.420Z,64.36
2022-08-10T20:55:08.902Z,64.69
2022-08-10T20:58:27.918Z,64.81
2022-08-10T21:01:18.120Z,65.13
2022-08-10T21:04:13.296Z,65.45
2022-08-10T21:07:58.203Z,65.59
2022-08-10T21:10:58.560Z,66.19
2022-08-10T21:14:12.189Z,67.30
2022-08-10T21:17:16.930Z,68.55
2022-08-10T21:20:28.800Z,69.41
2022-08-10T21:23:19.870Z,69.06
2022-08-10T21:26:29.640Z,69.71
2022-08-10T21:29:42.045Z,70.40
2022-08-10T21:33:02.057Z,71.37
2022-08-10T21:35:56.421Z,71.95
2022-08-10T21:38:46.145Z,72.64
2022-08-10T21:42:36.903Z,72.86
2022-08-10T21:46:01.573Z,75.36
2022-08-10T21:49:15.199Z,76.11
2022-08-10T21:52:41.413Z,76.66
2022-08-10T21:56:14.450Z,77.44
2022-08-10T21:59:29.369Z,77.40
2022-08-10T22:02:50.456Z,78.93
2022-08-10T22:05:58.580Z,79.41
2022-08-10T22:09:10.671Z,80.76
2022-08-10T22:12:31.326Z,81.22
2022-08-10T22:16:03.214Z,82.05
2022-08-10T22:19:14.847Z,82.82
2022-08-10T22:22:31.417Z,82.68
2022-08-10T22:25:56.243Z,81.26
2022-08-10T22:29:10.870Z,80.81
2022-08-10T22:32:35.413Z,81.26
2022-08-10T22:35:56.327Z,82.66
2022-08-10T22:40:12.543Z,83.93
2022-08-10T22:42:59.108Z,85.17
2022-08-10T22:46:18.928Z,86.06
2022-08-10T22:49:06.108Z,86.55
2022-08-10T22:52:16.815Z,86.90
2022-08-10T22:55:32.233Z,86.49
2022-08-10T22:58:28.826Z,86.08
2022-08-10T23:02:08.552Z,85.57
2022-08-10T23:04:57.754Z,85.52
2022-08-10T23:07:51.517Z,86.06
2022-08-10T23:10:45.552Z,86.14
2022-08-10T23:13:37.869Z,86.26
2022-08-10T23:16:46.807Z,86.32
2022-08-10T23:20:02.638Z,86.80
2022-08-10T23:22:56.640Z,87.41
2022-08-10T23:25:56.358Z,87.58
2022-08-10T23:29:05.201Z,88.74
2022-08-10T23:32:06.968Z,90.29
2022-08-10T23:36:30.664Z,90.97
2022-08-10T23:38:04.880Z,91.42
2022-08-10T23:40:56.609Z,91.56
2022-08-10T23:44:03.230Z,91.48
2022-08-10T23:46:52.198Z,91.07
2022-08-10T23:49:40.576Z,91.04
2022-08-10T23:52:34.130Z,90.42
2022-08-10T23:55:24.568Z,90.47
2022-08-10T23:58:31.919Z,90.21
